sensor_id;sensor_type;location;lat;lon;timestamp;P1;durP1;ratioP1;P2;durP2;ratioP2
62535;SDS011;63050;47.514;18.920;2023-04-08T00:03:03;16.20;;;11.40;;
62535;SDS011;63050;47.514;18.920;2023-04-08T00:08:04;16.30;;;11.30;;
62535;SDS011;63050;47.514;18.920;2023-04-08T00:13:05;16.20;;;11.90;;
62535;SDS011;63050;47.514;18.920;2023-04-08T00:18:06;16.10;;;11.50;;
62535;SDS011;63050;47.514;18.920;2023-04-08T00:23:07;17.70;;;11.60;;
62535;SDS011;63050;47.514;18.920;2023-04-08T00:28:08;19.10;;;11.80;;
62535;SDS011;63050;47.514;18.920;2023-04-08T00:33:09;17.40;;;12.60;;
62535;SDS011;63050;47.514;18.920;2023-04-08T00:38:11;19.00;;;12.50;;
62535;SDS011;63050;47.514;18.920;2023-04-08T00:43:12;19.10;;;11.60;;
62535;SDS011;63050;47.514;18.920;2023-04-08T00:48:13;16.50;;;11.90;;
62535;SDS011;63050;47.514;18.920;2023-04-08T00:53:14;19.60;;;12.20;;
62535;SDS011;63050;47.514;18.920;2023-04-08T00:58:17;17.10;;;11.90;;
62535;SDS011;63050;47.514;18.920;2023-04-08T01:08:58;15.30;;;10.90;;
62535;SDS011;63050;47.514;18.920;2023-04-08T01:14:00;14.00;;;10.50;;
62535;SDS011;63050;47.514;18.920;2023-04-08T01:19:05;15.30;;;10.80;;
62535;SDS011;63050;47.514;18.920;2023-04-08T01:24:19;14.30;;;9.70;;
62535;SDS011;63050;47.514;18.920;2023-04-08T01:29:25;15.20;;;9.60;;
62535;SDS011;63050;47.514;18.920;2023-04-08T01:34:26;14.00;;;9.80;;
62535;SDS011;63050;47.514;18.920;2023-04-08T01:39:30;14.10;;;9.70;;
62535;SDS011;63050;47.514;18.920;2023-04-08T01:44:31;16.70;;;10.50;;
62535;SDS011;63050;47.514;18.920;2023-04-08T01:49:33;16.10;;;11.00;;
62535;SDS011;63050;47.514;18.920;2023-04-08T01:54:34;14.60;;;9.60;;
62535;SDS011;63050;47.514;18.920;2023-04-08T01:59:36;13.20;;;9.40;;
62535;SDS011;63050;47.514;18.920;2023-04-08T02:04:39;12.20;;;9.30;;
62535;SDS011;63050;47.514;18.920;2023-04-08T02:09:40;12.60;;;9.00;;
62535;SDS011;63050;47.514;18.920;2023-04-08T02:14:41;13.90;;;10.40;;
62535;SDS011;63050;47.514;18.920;2023-04-08T02:19:46;16.70;;;10.50;;
62535;SDS011;63050;47.514;18.920;2023-04-08T02:25:13;16.60;;;11.00;;
62535;SDS011;63050;47.514;18.920;2023-04-08T02:30:15;17.30;;;12.00;;
62535;SDS011;63050;47.514;18.920;2023-04-08T02:35:16;16.60;;;12.00;;
62535;SDS011;63050;47.514;18.920;2023-04-08T02:40:21;18.80;;;12.10;;
62535;SDS011;63050;47.514;18.920;2023-04-08T02:45:27;17.70;;;12.10;;
62535;SDS011;63050;47.514;18.920;2023-04-08T02:50:31;20.00;;;12.90;;
62535;SDS011;63050;47.514;18.920;2023-04-08T02:55:32;18.60;;;13.30;;
62535;SDS011;63050;47.514;18.920;2023-04-08T03:00:33;19.10;;;12.30;;
62535;SDS011;63050;47.514;18.920;2023-04-08T03:05:34;17.30;;;12.30;;
62535;SDS011;63050;47.514;18.920;2023-04-08T03:10:35;19.20;;;12.80;;
62535;SDS011;63050;47.514;18.920;2023-04-08T03:15:36;18.40;;;12.40;;
62535;SDS011;63050;47.514;18.920;2023-04-08T03:20:37;18.70;;;11.40;;
62535;SDS011;63050;47.514;18.920;2023-04-08T03:25:38;19.50;;;12.50;;
62535;SDS011;63050;47.514;18.920;2023-04-08T03:30:39;19.80;;;12.50;;
62535;SDS011;63050;47.514;18.920;2023-04-08T03:35:40;19.80;;;13.10;;
62535;SDS011;63050;47.514;18.920;2023-04-08T03:40:41;20.50;;;13.50;;
62535;SDS011;63050;47.514;18.920;2023-04-08T03:45:42;19.70;;;12.80;;
62535;SDS011;63050;47.514;18.920;2023-04-08T03:50:43;20.60;;;13.80;;
62535;SDS011;63050;47.514;18.920;2023-04-08T03:55:44;20.50;;;12.70;;
62535;SDS011;63050;47.514;18.920;2023-04-08T04:00:45;18.00;;;12.50;;
62535;SDS011;63050;47.514;18.920;2023-04-08T04:05:46;17.70;;;12.20;;
62535;SDS011;63050;47.514;18.920;2023-04-08T04:10:47;19.10;;;12.10;;
62535;SDS011;63050;47.514;18.920;2023-04-08T04:15:48;18.50;;;12.10;;
62535;SDS011;63050;47.514;18.920;2023-04-08T04:20:49;21.00;;;12.80;;
62535;SDS011;63050;47.514;18.920;2023-04-08T04:25:50;18.30;;;13.30;;
62535;SDS011;63050;47.514;18.920;2023-04-08T04:30:51;18.50;;;12.20;;
62535;SDS011;63050;47.514;18.920;2023-04-08T04:35:52;18.50;;;11.70;;
62535;SDS011;63050;47.514;18.920;2023-04-08T04:40:53;15.40;;;10.20;;
62535;SDS011;63050;47.514;18.920;2023-04-08T04:45:54;18.00;;;11.90;;
62535;SDS011;63050;47.514;18.920;2023-04-08T04:50:57;18.00;;;12.00;;
62535;SDS011;63050;47.514;18.920;2023-04-08T04:55:58;17.40;;;11.90;;
62535;SDS011;63050;47.514;18.920;2023-04-08T05:01:01;18.10;;;11.80;;
62535;SDS011;63050;47.514;18.920;2023-04-08T05:06:02;16.60;;;11.40;;
62535;SDS011;63050;47.514;18.920;2023-04-08T05:11:02;14.80;;;9.70;;
62535;SDS011;63050;47.514;18.920;2023-04-08T05:16:03;14.10;;;9.40;;
62535;SDS011;63050;47.514;18.920;2023-04-08T05:21:05;11.20;;;8.90;;
62535;SDS011;63050;47.514;18.920;2023-04-08T05:26:07;14.70;;;10.10;;
62535;SDS011;63050;47.514;18.920;2023-04-08T05:31:09;14.20;;;10.10;;
62535;SDS011;63050;47.514;18.920;2023-04-08T05:36:12;13.70;;;8.80;;
62535;SDS011;63050;47.514;18.920;2023-04-08T05:41:14;13.70;;;9.60;;
62535;SDS011;63050;47.514;18.920;2023-04-08T05:46:16;13.40;;;9.30;;
62535;SDS011;63050;47.514;18.920;2023-04-08T05:51:16;13.90;;;9.40;;
62535;SDS011;63050;47.514;18.920;2023-04-08T05:56:17;14.30;;;9.20;;
62535;SDS011;63050;47.514;18.920;2023-04-08T06:01:18;13.60;;;9.70;;
62535;SDS011;63050;47.514;18.920;2023-04-08T06:06:19;12.80;;;8.90;;
62535;SDS011;63050;47.514;18.920;2023-04-08T06:11:20;12.60;;;9.50;;
62535;SDS011;63050;47.514;18.920;2023-04-08T06:16:21;16.20;;;9.60;;
62535;SDS011;63050;47.514;18.920;2023-04-08T06:21:22;11.80;;;8.90;;
62535;SDS011;63050;47.514;18.920;2023-04-08T06:26:23;12.80;;;9.70;;
62535;SDS011;63050;47.514;18.920;2023-04-08T06:31:24;15.50;;;10.50;;
62535;SDS011;63050;47.514;18.920;2023-04-08T06:36:24;12.30;;;8.70;;
62535;SDS011;63050;47.514;18.920;2023-04-08T06:41:25;12.50;;;8.50;;
62535;SDS011;63050;47.514;18.920;2023-04-08T06:46:29;11.50;;;8.90;;
62535;SDS011;63050;47.514;18.920;2023-04-08T06:51:30;13.50;;;9.40;;
62535;SDS011;63050;47.514;18.920;2023-04-08T06:56:31;15.10;;;9.50;;
62535;SDS011;63050;47.514;18.920;2023-04-08T07:01:32;13.10;;;8.80;;
62535;SDS011;63050;47.514;18.920;2023-04-08T07:06:33;12.70;;;8.70;;
62535;SDS011;63050;47.514;18.920;2023-04-08T07:11:35;14.40;;;10.30;;
62535;SDS011;63050;47.514;18.920;2023-04-08T07:16:37;14.80;;;10.30;;
62535;SDS011;63050;47.514;18.920;2023-04-08T07:21:39;14.80;;;9.90;;
62535;SDS011;63050;47.514;18.920;2023-04-08T07:26:42;14.20;;;11.00;;
62535;SDS011;63050;47.514;18.920;2023-04-08T07:31:42;14.20;;;9.70;;
62535;SDS011;63050;47.514;18.920;2023-04-08T07:36:44;15.50;;;10.30;;
62535;SDS011;63050;47.514;18.920;2023-04-08T07:41:45;17.10;;;10.90;;
62535;SDS011;63050;47.514;18.920;2023-04-08T07:46:46;12.90;;;9.80;;
62535;SDS011;63050;47.514;18.920;2023-04-08T07:51:50;14.40;;;10.10;;
62535;SDS011;63050;47.514;18.920;2023-04-08T07:56:52;16.50;;;11.10;;
62535;SDS011;63050;47.514;18.920;2023-04-08T08:01:53;13.80;;;9.90;;
62535;SDS011;63050;47.514;18.920;2023-04-08T08:06:54;15.20;;;10.40;;
62535;SDS011;63050;47.514;18.920;2023-04-08T08:11:55;13.30;;;9.70;;
62535;SDS011;63050;47.514;18.920;2023-04-08T08:16:56;12.50;;;9.30;;
62535;SDS011;63050;47.514;18.920;2023-04-08T08:21:58;12.50;;;8.70;;
62535;SDS011;63050;47.514;18.920;2023-04-08T08:26:59;13.20;;;9.30;;
62535;SDS011;63050;47.514;18.920;2023-04-08T08:32:00;17.00;;;9.80;;
62535;SDS011;63050;47.514;18.920;2023-04-08T08:37:03;13.50;;;9.70;;
62535;SDS011;63050;47.514;18.920;2023-04-08T08:42:03;14.20;;;10.10;;
62535;SDS011;63050;47.514;18.920;2023-04-08T08:47:05;10.90;;;8.80;;
62535;SDS011;63050;47.514;18.920;2023-04-08T08:52:06;13.60;;;9.60;;
62535;SDS011;63050;47.514;18.920;2023-04-08T08:57:17;11.70;;;8.80;;
62535;SDS011;63050;47.514;18.920;2023-04-08T09:02:22;10.20;;;8.10;;
62535;SDS011;63050;47.514;18.920;2023-04-08T09:07:26;10.40;;;7.60;;
62535;SDS011;63050;47.514;18.920;2023-04-08T09:12:28;14.20;;;9.70;;
62535;SDS011;63050;47.514;18.920;2023-04-08T09:17:34;10.90;;;8.00;;
62535;SDS011;63050;47.514;18.920;2023-04-08T09:27:53;9.90;;;6.60;;
62535;SDS011;63050;47.514;18.920;2023-04-08T09:32:55;10.10;;;7.50;;
62535;SDS011;63050;47.514;18.920;2023-04-08T09:37:56;9.30;;;7.30;;
62535;SDS011;63050;47.514;18.920;2023-04-08T09:42:57;11.20;;;8.10;;
62535;SDS011;63050;47.514;18.920;2023-04-08T09:48:11;9.40;;;7.60;;
62535;SDS011;63050;47.514;18.920;2023-04-08T09:58:31;12.20;;;9.40;;
62535;SDS011;63050;47.514;18.920;2023-04-08T10:08:49;10.90;;;8.50;;
62535;SDS011;63050;47.514;18.920;2023-04-08T10:13:50;12.60;;;9.50;;
62535;SDS011;63050;47.514;18.920;2023-04-08T10:18:52;12.10;;;9.20;;
62535;SDS011;63050;47.514;18.920;2023-04-08T10:23:56;13.00;;;10.00;;
62535;SDS011;63050;47.514;18.920;2023-04-08T10:39:25;12.40;;;9.70;;
62535;SDS011;63050;47.514;18.920;2023-04-08T10:44:26;12.50;;;10.10;;
62535;SDS011;63050;47.514;18.920;2023-04-08T10:49:34;12.70;;;9.60;;
62535;SDS011;63050;47.514;18.920;2023-04-08T10:54:36;12.40;;;9.50;;
62535;SDS011;63050;47.514;18.920;2023-04-08T10:59:37;11.20;;;9.70;;
62535;SDS011;63050;47.514;18.920;2023-04-08T11:04:40;13.20;;;10.40;;
62535;SDS011;63050;47.514;18.920;2023-04-08T11:09:42;13.80;;;11.40;;
62535;SDS011;63050;47.514;18.920;2023-04-08T11:14:43;14.50;;;10.90;;
62535;SDS011;63050;47.514;18.920;2023-04-08T11:19:44;13.80;;;11.00;;
62535;SDS011;63050;47.514;18.920;2023-04-08T11:24:46;13.30;;;10.20;;
62535;SDS011;63050;47.514;18.920;2023-04-08T11:29:47;14.30;;;10.70;;
62535;SDS011;63050;47.514;18.920;2023-04-08T11:34:48;16.30;;;13.00;;
62535;SDS011;63050;47.514;18.920;2023-04-08T11:39:49;19.00;;;14.30;;
62535;SDS011;63050;47.514;18.920;2023-04-08T11:44:51;12.60;;;11.20;;
62535;SDS011;63050;47.514;18.920;2023-04-08T11:49:52;14.20;;;12.00;;
62535;SDS011;63050;47.514;18.920;2023-04-08T11:54:53;15.40;;;12.70;;
62535;SDS011;63050;47.514;18.920;2023-04-08T11:59:55;14.90;;;11.50;;
62535;SDS011;63050;47.514;18.920;2023-04-08T12:04:55;12.60;;;10.90;;
62535;SDS011;63050;47.514;18.920;2023-04-08T12:09:56;14.00;;;11.50;;
62535;SDS011;63050;47.514;18.920;2023-04-08T12:14:57;14.20;;;11.10;;
62535;SDS011;63050;47.514;18.920;2023-04-08T12:19:58;13.20;;;11.00;;
62535;SDS011;63050;47.514;18.920;2023-04-08T12:25:00;32.00;;;20.90;;
62535;SDS011;63050;47.514;18.920;2023-04-08T12:30:04;13.10;;;10.30;;
62535;SDS011;63050;47.514;18.920;2023-04-08T12:35:06;11.10;;;9.70;;
62535;SDS011;63050;47.514;18.920;2023-04-08T12:40:07;12.60;;;10.20;;
62535;SDS011;63050;47.514;18.920;2023-04-08T12:45:08;12.20;;;10.70;;
62535;SDS011;63050;47.514;18.920;2023-04-08T12:50:09;13.50;;;11.40;;
62535;SDS011;63050;47.514;18.920;2023-04-08T12:55:10;12.40;;;9.80;;
62535;SDS011;63050;47.514;18.920;2023-04-08T13:00:11;10.80;;;9.70;;
62535;SDS011;63050;47.514;18.920;2023-04-08T13:05:13;11.30;;;9.50;;
62535;SDS011;63050;47.514;18.920;2023-04-08T13:10:13;10.00;;;8.70;;
62535;SDS011;63050;47.514;18.920;2023-04-08T13:15:14;11.50;;;9.10;;
62535;SDS011;63050;47.514;18.920;2023-04-08T13:20:15;9.80;;;8.80;;
62535;SDS011;63050;47.514;18.920;2023-04-08T13:25:16;10.50;;;8.90;;
62535;SDS011;63050;47.514;18.920;2023-04-08T13:30:17;8.40;;;7.50;;
62535;SDS011;63050;47.514;18.920;2023-04-08T13:35:18;11.80;;;9.40;;
62535;SDS011;63050;47.514;18.920;2023-04-08T13:40:19;10.40;;;9.30;;
62535;SDS011;63050;47.514;18.920;2023-04-08T13:45:20;11.40;;;10.00;;
62535;SDS011;63050;47.514;18.920;2023-04-08T13:50:21;11.20;;;9.70;;
62535;SDS011;63050;47.514;18.920;2023-04-08T13:55:22;11.20;;;9.00;;
62535;SDS011;63050;47.514;18.920;2023-04-08T14:00:23;11.10;;;10.00;;
62535;SDS011;63050;47.514;18.920;2023-04-08T14:05:24;13.60;;;11.00;;
62535;SDS011;63050;47.514;18.920;2023-04-08T14:10:25;18.60;;;13.30;;
62535;SDS011;63050;47.514;18.920;2023-04-08T14:15:26;12.00;;;10.00;;
62535;SDS011;63050;47.514;18.920;2023-04-08T14:20:27;16.20;;;13.90;;
62535;SDS011;63050;47.514;18.920;2023-04-08T14:25:28;14.90;;;12.90;;
62535;SDS011;63050;47.514;18.920;2023-04-08T14:30:29;11.60;;;10.20;;
62535;SDS011;63050;47.514;18.920;2023-04-08T14:35:31;12.50;;;10.80;;
62535;SDS011;63050;47.514;18.920;2023-04-08T14:40:32;12.20;;;10.50;;
62535;SDS011;63050;47.514;18.920;2023-04-08T14:45:32;11.00;;;9.20;;
62535;SDS011;63050;47.514;18.920;2023-04-08T14:50:33;10.20;;;8.60;;
62535;SDS011;63050;47.514;18.920;2023-04-08T14:55:34;10.80;;;9.00;;
62535;SDS011;63050;47.514;18.920;2023-04-08T15:00:35;10.30;;;8.80;;
62535;SDS011;63050;47.514;18.920;2023-04-08T15:05:37;9.60;;;8.50;;
62535;SDS011;63050;47.514;18.920;2023-04-08T15:10:38;10.00;;;8.60;;
62535;SDS011;63050;47.514;18.920;2023-04-08T15:15:39;10.40;;;8.50;;
62535;SDS011;63050;47.514;18.920;2023-04-08T15:20:41;9.00;;;8.10;;
62535;SDS011;63050;47.514;18.920;2023-04-08T15:25:42;11.00;;;9.60;;
62535;SDS011;63050;47.514;18.920;2023-04-08T15:30:42;9.30;;;8.20;;
62535;SDS011;63050;47.514;18.920;2023-04-08T15:35:46;10.00;;;8.90;;
62535;SDS011;63050;47.514;18.920;2023-04-08T15:40:47;12.30;;;11.00;;
62535;SDS011;63050;47.514;18.920;2023-04-08T15:45:48;10.70;;;9.60;;
62535;SDS011;63050;47.514;18.920;2023-04-08T15:50:49;10.00;;;8.90;;
62535;SDS011;63050;47.514;18.920;2023-04-08T15:55:51;11.20;;;9.60;;
62535;SDS011;63050;47.514;18.920;2023-04-08T16:00:52;9.80;;;8.80;;
62535;SDS011;63050;47.514;18.920;2023-04-08T16:05:55;10.30;;;7.80;;
62535;SDS011;63050;47.514;18.920;2023-04-08T16:10:59;8.60;;;7.70;;
62535;SDS011;63050;47.514;18.920;2023-04-08T16:16:02;11.50;;;10.30;;
62535;SDS011;63050;47.514;18.920;2023-04-08T16:21:03;10.60;;;8.70;;
62535;SDS011;63050;47.514;18.920;2023-04-08T16:26:07;10.30;;;8.50;;
62535;SDS011;63050;47.514;18.920;2023-04-08T16:31:08;10.80;;;8.80;;
62535;SDS011;63050;47.514;18.920;2023-04-08T16:36:08;9.80;;;8.70;;
62535;SDS011;63050;47.514;18.920;2023-04-08T16:41:10;9.80;;;8.50;;
62535;SDS011;63050;47.514;18.920;2023-04-08T16:46:11;9.30;;;7.60;;
62535;SDS011;63050;47.514;18.920;2023-04-08T16:51:15;8.40;;;7.30;;
62535;SDS011;63050;47.514;18.920;2023-04-08T16:56:17;9.50;;;8.20;;
62535;SDS011;63050;47.514;18.920;2023-04-08T17:01:18;10.20;;;8.40;;
62535;SDS011;63050;47.514;18.920;2023-04-08T17:06:19;8.90;;;7.60;;
62535;SDS011;63050;47.514;18.920;2023-04-08T17:11:21;8.50;;;7.20;;
62535;SDS011;63050;47.514;18.920;2023-04-08T17:16:22;8.90;;;6.80;;
62535;SDS011;63050;47.514;18.920;2023-04-08T17:21:23;9.20;;;7.00;;
62535;SDS011;63050;47.514;18.920;2023-04-08T17:26:24;7.10;;;6.10;;
62535;SDS011;63050;47.514;18.920;2023-04-08T17:31:25;7.60;;;6.80;;
62535;SDS011;63050;47.514;18.920;2023-04-08T17:36:27;8.90;;;7.20;;
62535;SDS011;63050;47.514;18.920;2023-04-08T17:41:28;9.80;;;8.70;;
62535;SDS011;63050;47.514;18.920;2023-04-08T17:46:30;10.40;;;8.20;;
62535;SDS011;63050;47.514;18.920;2023-04-08T17:51:32;17.20;;;12.20;;
62535;SDS011;63050;47.514;18.920;2023-04-08T17:56:33;12.40;;;10.20;;
62535;SDS011;63050;47.514;18.920;2023-04-08T18:01:34;16.10;;;12.10;;
62535;SDS011;63050;47.514;18.920;2023-04-08T18:06:36;12.30;;;11.10;;
62535;SDS011;63050;47.514;18.920;2023-04-08T18:11:37;11.20;;;9.30;;
62535;SDS011;63050;47.514;18.920;2023-04-08T18:16:38;11.10;;;8.50;;
62535;SDS011;63050;47.514;18.920;2023-04-08T18:21:39;12.70;;;9.40;;
62535;SDS011;63050;47.514;18.920;2023-04-08T18:26:40;12.00;;;9.40;;
62535;SDS011;63050;47.514;18.920;2023-04-08T18:31:41;10.20;;;8.10;;
62535;SDS011;63050;47.514;18.920;2023-04-08T18:36:42;9.90;;;8.30;;
62535;SDS011;63050;47.514;18.920;2023-04-08T18:41:43;10.90;;;7.90;;
62535;SDS011;63050;47.514;18.920;2023-04-08T18:46:44;11.00;;;8.20;;
62535;SDS011;63050;47.514;18.920;2023-04-08T18:51:45;9.70;;;7.60;;
62535;SDS011;63050;47.514;18.920;2023-04-08T18:56:46;9.20;;;7.40;;
62535;SDS011;63050;47.514;18.920;2023-04-08T19:01:47;10.50;;;7.90;;
62535;SDS011;63050;47.514;18.920;2023-04-08T19:06:48;9.50;;;7.40;;
62535;SDS011;63050;47.514;18.920;2023-04-08T19:11:49;9.60;;;7.90;;
62535;SDS011;63050;47.514;18.920;2023-04-08T19:16:50;10.50;;;7.60;;
62535;SDS011;63050;47.514;18.920;2023-04-08T19:21:51;9.40;;;7.90;;
62535;SDS011;63050;47.514;18.920;2023-04-08T19:26:53;8.80;;;7.50;;
62535;SDS011;63050;47.514;18.920;2023-04-08T19:31:54;11.30;;;8.10;;
62535;SDS011;63050;47.514;18.920;2023-04-08T19:36:56;9.70;;;6.80;;
62535;SDS011;63050;47.514;18.920;2023-04-08T19:41:57;13.90;;;10.10;;
62535;SDS011;63050;47.514;18.920;2023-04-08T19:46:58;18.70;;;12.40;;
62535;SDS011;63050;47.514;18.920;2023-04-08T19:51:59;10.80;;;8.10;;
62535;SDS011;63050;47.514;18.920;2023-04-08T19:57:00;10.10;;;8.10;;
62535;SDS011;63050;47.514;18.920;2023-04-08T20:02:01;10.00;;;8.10;;
62535;SDS011;63050;47.514;18.920;2023-04-08T20:07:05;11.70;;;9.40;;
62535;SDS011;63050;47.514;18.920;2023-04-08T20:12:06;11.20;;;7.40;;
62535;SDS011;63050;47.514;18.920;2023-04-08T20:17:08;11.50;;;8.20;;
62535;SDS011;63050;47.514;18.920;2023-04-08T20:22:09;15.20;;;10.20;;
62535;SDS011;63050;47.514;18.920;2023-04-08T20:27:10;11.20;;;8.20;;
62535;SDS011;63050;47.514;18.920;2023-04-08T20:32:11;10.40;;;8.30;;
62535;SDS011;63050;47.514;18.920;2023-04-08T20:37:12;10.10;;;7.50;;
62535;SDS011;63050;47.514;18.920;2023-04-08T20:42:13;7.30;;;5.90;;
62535;SDS011;63050;47.514;18.920;2023-04-08T20:47:14;7.20;;;6.30;;
62535;SDS011;63050;47.514;18.920;2023-04-08T20:52:15;8.30;;;6.30;;
62535;SDS011;63050;47.514;18.920;2023-04-08T20:57:16;8.30;;;6.50;;
62535;SDS011;63050;47.514;18.920;2023-04-08T21:02:17;8.40;;;6.40;;
62535;SDS011;63050;47.514;18.920;2023-04-08T21:07:20;10.10;;;6.80;;
62535;SDS011;63050;47.514;18.920;2023-04-08T21:12:24;11.80;;;8.20;;
62535;SDS011;63050;47.514;18.920;2023-04-08T21:17:25;9.90;;;7.50;;
62535;SDS011;63050;47.514;18.920;2023-04-08T21:22:29;7.70;;;6.30;;
62535;SDS011;63050;47.514;18.920;2023-04-08T21:27:32;8.80;;;7.00;;
62535;SDS011;63050;47.514;18.920;2023-04-08T21:32:33;9.00;;;6.40;;
62535;SDS011;63050;47.514;18.920;2023-04-08T21:37:33;8.70;;;5.90;;
62535;SDS011;63050;47.514;18.920;2023-04-08T21:42:34;8.00;;;6.40;;
62535;SDS011;63050;47.514;18.920;2023-04-08T21:47:35;6.90;;;5.10;;
62535;SDS011;63050;47.514;18.920;2023-04-08T21:52:36;7.10;;;6.00;;
62535;SDS011;63050;47.514;18.920;2023-04-08T21:57:37;6.60;;;5.40;;
62535;SDS011;63050;47.514;18.920;2023-04-08T22:02:38;8.80;;;6.00;;
62535;SDS011;63050;47.514;18.920;2023-04-08T22:07:43;7.30;;;5.60;;
62535;SDS011;63050;47.514;18.920;2023-04-08T22:12:43;6.30;;;5.10;;
62535;SDS011;63050;47.514;18.920;2023-04-08T22:17:45;6.70;;;4.90;;
62535;SDS011;63050;47.514;18.920;2023-04-08T22:22:46;6.90;;;5.50;;
62535;SDS011;63050;47.514;18.920;2023-04-08T22:27:47;6.50;;;5.20;;
62535;SDS011;63050;47.514;18.920;2023-04-08T22:32:48;6.80;;;5.20;;
62535;SDS011;63050;47.514;18.920;2023-04-08T22:37:49;6.30;;;4.80;;
62535;SDS011;63050;47.514;18.920;2023-04-08T22:42:50;6.90;;;4.90;;
62535;SDS011;63050;47.514;18.920;2023-04-08T22:47:51;6.40;;;5.00;;
62535;SDS011;63050;47.514;18.920;2023-04-08T22:52:53;5.40;;;4.40;;
62535;SDS011;63050;47.514;18.920;2023-04-08T22:57:54;5.70;;;4.50;;
62535;SDS011;63050;47.514;18.920;2023-04-08T23:02:56;5.50;;;4.40;;
62535;SDS011;63050;47.514;18.920;2023-04-08T23:07:57;8.10;;;5.20;;
62535;SDS011;63050;47.514;18.920;2023-04-08T23:12:57;6.40;;;5.20;;
62535;SDS011;63050;47.514;18.920;2023-04-08T23:17:58;6.60;;;4.90;;
62535;SDS011;63050;47.514;18.920;2023-04-08T23:22:59;6.30;;;5.20;;
62535;SDS011;63050;47.514;18.920;2023-04-08T23:28:01;6.80;;;5.60;;
62535;SDS011;63050;47.514;18.920;2023-04-08T23:33:03;9.10;;;6.60;;
62535;SDS011;63050;47.514;18.920;2023-04-08T23:38:04;6.90;;;5.70;;
62535;SDS011;63050;47.514;18.920;2023-04-08T23:43:05;11.40;;;6.10;;
62535;SDS011;63050;47.514;18.920;2023-04-08T23:48:06;7.30;;;5.50;;
62535;SDS011;63050;47.514;18.920;2023-04-08T23:53:07;7.70;;;5.90;;
62535;SDS011;63050;47.514;18.920;2023-04-08T23:58:08;6.80;;;5.30;;
